sensor_id;sensor_type;location;lat;lon;timestamp;pressure;altitude;pressure_sealevel;temperature;humidity
47913;BME280;33676;51.006;17.180;2023-01-05T00:01:59;99569.36;;;10.31;100.00
47913;BME280;33676;51.006;17.180;2023-01-05T00:04:28;99562.77;;;10.29;100.00
47913;BME280;33676;51.006;17.180;2023-01-05T00:06:56;99554.59;;;10.24;100.00
47913;BME280;33676;51.006;17.180;2023-01-05T00:09:25;99548.93;;;10.19;100.00
47913;BME280;33676;51.006;17.180;2023-01-05T00:11:53;99541.98;;;10.14;100.00
47913;BME280;33676;51.006;17.180;2023-01-05T00:14:40;99538.11;;;10.11;100.00
47913;BME280;33676;51.006;17.180;2023-01-05T00:17:27;99536.20;;;10.07;100.00
47913;BME280;33676;51.006;17.180;2023-01-05T00:20:19;99532.83;;;10.05;100.00
47913;BME280;33676;51.006;17.180;2023-01-05T00:23:07;99526.52;;;10.04;100.00
47913;BME280;33676;51.006;17.180;2023-01-05T00:25:39;99515.68;;;10.04;100.00
47913;BME280;33676;51.006;17.180;2023-01-05T00:28:08;99509.51;;;10.04;100.00
47913;BME280;33676;51.006;17.180;2023-01-05T00:30:43;99507.45;;;10.08;100.00
47913;BME280;33676;51.006;17.180;2023-01-05T00:33:16;99508.80;;;10.10;100.00
47913;BME280;33676;51.006;17.180;2023-01-05T00:35:44;99510.98;;;10.13;100.00
47913;BME280;33676;51.006;17.180;2023-01-05T00:38:13;99506.80;;;10.17;100.00
47913;BME280;33676;51.006;17.180;2023-01-05T00:40:41;99502.08;;;10.21;100.00
47913;BME280;33676;51.006;17.180;2023-01-05T00:43:10;99504.76;;;10.25;100.00
47913;BME280;33676;51.006;17.180;2023-01-05T00:45:38;99503.74;;;10.28;100.00
47913;BME280;33676;51.006;17.180;2023-01-05T00:48:06;99499.20;;;10.30;100.00
47913;BME280;33676;51.006;17.180;2023-01-05T00:50:35;99496.39;;;10.33;100.00
47913;BME280;33676;51.006;17.180;2023-01-05T00:53:03;99493.62;;;10.34;100.00
47913;BME280;33676;51.006;17.180;2023-01-05T00:55:32;99491.53;;;10.34;100.00
47913;BME280;33676;51.006;17.180;2023-01-05T00:58:00;99494.79;;;10.35;100.00
47913;BME280;33676;51.006;17.180;2023-01-05T01:00:28;99483.59;;;10.35;100.00
47913;BME280;33676;51.006;17.180;2023-01-05T01:02:57;99485.30;;;10.35;100.00
47913;BME280;33676;51.006;17.180;2023-01-05T01:05:25;99484.64;;;10.37;100.00
47913;BME280;33676;51.006;17.180;2023-01-05T01:07:54;99480.05;;;10.37;100.00
47913;BME280;33676;51.006;17.180;2023-01-05T01:10:22;99484.58;;;10.37;100.00
47913;BME280;33676;51.006;17.180;2023-01-05T01:12:52;99483.06;;;10.39;100.00
47913;BME280;33676;51.006;17.180;2023-01-05T01:15:21;99494.38;;;10.41;100.00
47913;BME280;33676;51.006;17.180;2023-01-05T01:17:50;99487.54;;;10.43;100.00
47913;BME280;33676;51.006;17.180;2023-01-05T01:20:18;99486.10;;;10.45;100.00
47913;BME280;33676;51.006;17.180;2023-01-05T01:22:47;99492.72;;;10.47;100.00
47913;BME280;33676;51.006;17.180;2023-01-05T01:25:15;99485.16;;;10.50;100.00
47913;BME280;33676;51.006;17.180;2023-01-05T01:27:44;99487.48;;;10.51;100.00
47913;BME280;33676;51.006;17.180;2023-01-05T01:30:12;99487.09;;;10.52;100.00
47913;BME280;33676;51.006;17.180;2023-01-05T01:32:41;99483.17;;;10.52;100.00
47913;BME280;33676;51.006;17.180;2023-01-05T01:35:09;99480.66;;;10.53;100.00
47913;BME280;33676;51.006;17.180;2023-01-05T01:37:38;99477.33;;;10.55;100.00
47913;BME280;33676;51.006;17.180;2023-01-05T01:40:07;99481.13;;;10.60;100.00
47913;BME280;33676;51.006;17.180;2023-01-05T01:42:36;99476.02;;;10.66;99.68
47913;BME280;33676;51.006;17.180;2023-01-05T01:45:22;99472.96;;;10.73;99.18
47913;BME280;33676;51.006;17.180;2023-01-05T01:48:00;99470.98;;;10.81;99.08
47913;BME280;33676;51.006;17.180;2023-01-05T01:50:45;99486.44;;;10.88;98.22
47913;BME280;33676;51.006;17.180;2023-01-05T01:53:33;99477.95;;;10.98;97.46
47913;BME280;33676;51.006;17.180;2023-01-05T01:56:05;99472.27;;;11.06;97.97
47913;BME280;33676;51.006;17.180;2023-01-05T01:58:35;99473.92;;;11.07;98.25
47913;BME280;33676;51.006;17.180;2023-01-05T02:01:04;99474.21;;;11.02;98.05
47913;BME280;33676;51.006;17.180;2023-01-05T02:03:33;99469.94;;;10.98;97.89
47913;BME280;33676;51.006;17.180;2023-01-05T02:06:01;99467.83;;;10.94;98.21
47913;BME280;33676;51.006;17.180;2023-01-05T02:08:30;99461.39;;;10.92;98.31
47913;BME280;33676;51.006;17.180;2023-01-05T02:17:02;99455.33;;;10.89;98.52
47913;BME280;33676;51.006;17.180;2023-01-05T02:23:01;99449.05;;;10.80;98.81
47913;BME280;33676;51.006;17.180;2023-01-05T02:31:18;99449.98;;;10.66;99.26
47913;BME280;33676;51.006;17.180;2023-01-05T02:34:21;99454.73;;;10.64;99.13
47913;BME280;33676;51.006;17.180;2023-01-05T02:37:00;99453.04;;;10.65;98.99
47913;BME280;33676;51.006;17.180;2023-01-05T02:39:58;99452.40;;;10.68;98.51
47913;BME280;33676;51.006;17.180;2023-01-05T02:42:30;99447.42;;;10.75;98.34
47913;BME280;33676;51.006;17.180;2023-01-05T02:45:04;99448.67;;;10.82;98.00
47913;BME280;33676;51.006;17.180;2023-01-05T02:47:41;99435.33;;;10.90;97.54
47913;BME280;33676;51.006;17.180;2023-01-05T02:51:02;99442.38;;;10.99;97.16
47913;BME280;33676;51.006;17.180;2023-01-05T02:53:14;99432.95;;;11.06;96.78
47913;BME280;33676;51.006;17.180;2023-01-05T02:56:09;99438.28;;;11.12;96.21
47913;BME280;33676;51.006;17.180;2023-01-05T02:58:46;99431.34;;;11.18;95.62
47913;BME280;33676;51.006;17.180;2023-01-05T03:01:23;99430.73;;;11.22;95.38
47913;BME280;33676;51.006;17.180;2023-01-05T03:04:20;99436.92;;;11.23;95.19
47913;BME280;33676;51.006;17.180;2023-01-05T03:06:55;99443.25;;;11.25;93.99
47913;BME280;33676;51.006;17.180;2023-01-05T03:09:31;99431.44;;;11.30;94.24
47913;BME280;33676;51.006;17.180;2023-01-05T03:12:32;99439.38;;;11.31;93.69
47913;BME280;33676;51.006;17.180;2023-01-05T03:15:30;99429.64;;;11.34;93.62
47913;BME280;33676;51.006;17.180;2023-01-05T03:18:04;99441.86;;;11.34;93.06
47913;BME280;33676;51.006;17.180;2023-01-05T03:20:34;99435.88;;;11.36;93.25
47913;BME280;33676;51.006;17.180;2023-01-05T03:23:07;99431.75;;;11.36;93.21
47913;BME280;33676;51.006;17.180;2023-01-05T03:25:56;99426.94;;;11.35;93.11
47913;BME280;33676;51.006;17.180;2023-01-05T03:28:51;99432.14;;;11.34;93.23
47913;BME280;33676;51.006;17.180;2023-01-05T03:32:12;99434.04;;;11.32;92.99
47913;BME280;33676;51.006;17.180;2023-01-05T03:35:11;99428.83;;;11.32;92.94
47913;BME280;33676;51.006;17.180;2023-01-05T03:38:25;99430.92;;;11.32;92.91
47913;BME280;33676;51.006;17.180;2023-01-05T03:40:59;99431.95;;;11.30;92.76
47913;BME280;33676;51.006;17.180;2023-01-05T03:43:34;99438.02;;;11.28;93.04
47913;BME280;33676;51.006;17.180;2023-01-05T03:46:23;99431.97;;;11.25;93.27
47913;BME280;33676;51.006;17.180;2023-01-05T03:48:52;99434.95;;;11.20;93.41
47913;BME280;33676;51.006;17.180;2023-01-05T03:51:20;99435.79;;;11.15;93.60
47913;BME280;33676;51.006;17.180;2023-01-05T03:53:49;99442.13;;;11.11;93.78
47913;BME280;33676;51.006;17.180;2023-01-05T03:56:17;99435.85;;;11.07;93.93
47913;BME280;33676;51.006;17.180;2023-01-05T03:58:45;99431.67;;;11.05;94.05
47913;BME280;33676;51.006;17.180;2023-01-05T04:01:13;99434.55;;;11.04;94.11
47913;BME280;33676;51.006;17.180;2023-01-05T04:03:42;99440.46;;;11.02;94.11
47913;BME280;33676;51.006;17.180;2023-01-05T04:06:11;99435.33;;;11.03;94.40
47913;BME280;33676;51.006;17.180;2023-01-05T04:08:39;99434.67;;;11.03;94.57
47913;BME280;33676;51.006;17.180;2023-01-05T04:11:18;99436.60;;;11.01;94.95
47913;BME280;33676;51.006;17.180;2023-01-05T04:13:48;99438.27;;;10.94;95.96
47913;BME280;33676;51.006;17.180;2023-01-05T04:16:17;99437.63;;;10.79;96.65
47913;BME280;33676;51.006;17.180;2023-01-05T04:18:45;99437.45;;;10.62;97.22
47913;BME280;33676;51.006;17.180;2023-01-05T04:21:13;99435.98;;;10.43;97.61
47913;BME280;33676;51.006;17.180;2023-01-05T04:23:42;99435.56;;;10.27;98.26
47913;BME280;33676;51.006;17.180;2023-01-05T04:26:10;99431.93;;;10.13;98.78
47913;BME280;33676;51.006;17.180;2023-01-05T04:28:38;99436.61;;;10.01;99.34
47913;BME280;33676;51.006;17.180;2023-01-05T04:31:07;99444.89;;;9.92;99.83
47913;BME280;33676;51.006;17.180;2023-01-05T04:33:35;99451.69;;;9.85;99.99
47913;BME280;33676;51.006;17.180;2023-01-05T04:36:07;99464.02;;;9.76;100.00
47913;BME280;33676;51.006;17.180;2023-01-05T04:38:35;99473.21;;;9.68;100.00
47913;BME280;33676;51.006;17.180;2023-01-05T04:41:03;99478.90;;;9.61;100.00
47913;BME280;33676;51.006;17.180;2023-01-05T04:43:32;99483.48;;;9.55;100.00
47913;BME280;33676;51.006;17.180;2023-01-05T04:46:00;99490.59;;;9.49;100.00
47913;BME280;33676;51.006;17.180;2023-01-05T04:48:29;99498.33;;;9.44;100.00
47913;BME280;33676;51.006;17.180;2023-01-05T04:50:59;99489.30;;;9.40;100.00
47913;BME280;33676;51.006;17.180;2023-01-05T04:53:27;99486.52;;;9.34;100.00
47913;BME280;33676;51.006;17.180;2023-01-05T04:55:55;99484.15;;;9.27;100.00
47913;BME280;33676;51.006;17.180;2023-01-05T04:58:24;99492.93;;;9.22;100.00
47913;BME280;33676;51.006;17.180;2023-01-05T05:00:52;99501.68;;;9.17;100.00
47913;BME280;33676;51.006;17.180;2023-01-05T05:03:21;99494.91;;;9.11;100.00
47913;BME280;33676;51.006;17.180;2023-01-05T05:05:51;99494.87;;;9.05;100.00
47913;BME280;33676;51.006;17.180;2023-01-05T05:08:19;99493.84;;;8.99;100.00
47913;BME280;33676;51.006;17.180;2023-01-05T05:10:48;99503.07;;;8.89;100.00
47913;BME280;33676;51.006;17.180;2023-01-05T05:13:16;99521.45;;;8.74;100.00
47913;BME280;33676;51.006;17.180;2023-01-05T05:15:44;99512.10;;;8.56;100.00
47913;BME280;33676;51.006;17.180;2023-01-05T05:18:13;99501.68;;;8.38;100.00
47913;BME280;33676;51.006;17.180;2023-01-05T05:20:43;99505.99;;;8.23;100.00
47913;BME280;33676;51.006;17.180;2023-01-05T05:23:13;99505.77;;;8.09;100.00
47913;BME280;33676;51.006;17.180;2023-01-05T05:25:41;99492.59;;;7.97;100.00
47913;BME280;33676;51.006;17.180;2023-01-05T05:28:10;99471.27;;;7.90;100.00
47913;BME280;33676;51.006;17.180;2023-01-05T05:30:38;99472.36;;;7.83;100.00
47913;BME280;33676;51.006;17.180;2023-01-05T05:33:06;99482.82;;;7.79;100.00
47913;BME280;33676;51.006;17.180;2023-01-05T05:35:34;99491.30;;;7.77;100.00
47913;BME280;33676;51.006;17.180;2023-01-05T05:38:03;99492.14;;;7.77;100.00
47913;BME280;33676;51.006;17.180;2023-01-05T05:40:31;99490.55;;;7.78;100.00
47913;BME280;33676;51.006;17.180;2023-01-05T05:42:59;99497.11;;;7.78;100.00
47913;BME280;33676;51.006;17.180;2023-01-05T05:45:28;99493.55;;;7.79;100.00
47913;BME280;33676;51.006;17.180;2023-01-05T05:47:56;99505.10;;;7.80;100.00
47913;BME280;33676;51.006;17.180;2023-01-05T05:50:25;99504.86;;;7.81;100.00
47913;BME280;33676;51.006;17.180;2023-01-05T05:52:53;99498.36;;;7.82;100.00
47913;BME280;33676;51.006;17.180;2023-01-05T05:55:22;99504.39;;;7.83;100.00
47913;BME280;33676;51.006;17.180;2023-01-05T05:57:50;99502.89;;;7.84;100.00
47913;BME280;33676;51.006;17.180;2023-01-05T06:00:18;99508.02;;;7.85;100.00
47913;BME280;33676;51.006;17.180;2023-01-05T06:02:47;99510.77;;;7.85;100.00
47913;BME280;33676;51.006;17.180;2023-01-05T06:05:15;99514.88;;;7.87;100.00
47913;BME280;33676;51.006;17.180;2023-01-05T06:07:44;99517.58;;;7.87;100.00
47913;BME280;33676;51.006;17.180;2023-01-05T06:10:12;99522.74;;;7.88;100.00
47913;BME280;33676;51.006;17.180;2023-01-05T06:12:41;99522.84;;;7.89;100.00
47913;BME280;33676;51.006;17.180;2023-01-05T06:15:10;99527.18;;;7.89;100.00
47913;BME280;33676;51.006;17.180;2023-01-05T06:17:38;99528.85;;;7.90;100.00
47913;BME280;33676;51.006;17.180;2023-01-05T06:20:07;99523.63;;;7.90;100.00
47913;BME280;33676;51.006;17.180;2023-01-05T06:22:36;99527.42;;;7.91;100.00
47913;BME280;33676;51.006;17.180;2023-01-05T06:25:05;99526.83;;;7.91;100.00
47913;BME280;33676;51.006;17.180;2023-01-05T06:27:34;99527.08;;;7.92;100.00
47913;BME280;33676;51.006;17.180;2023-01-05T06:30:03;99526.77;;;7.94;100.00
47913;BME280;33676;51.006;17.180;2023-01-05T06:32:32;99534.24;;;7.96;100.00
47913;BME280;33676;51.006;17.180;2023-01-05T06:35:00;99533.65;;;8.00;100.00
47913;BME280;33676;51.006;17.180;2023-01-05T06:37:29;99529.18;;;8.04;100.00
47913;BME280;33676;51.006;17.180;2023-01-05T06:39:57;99531.86;;;8.07;100.00
47913;BME280;33676;51.006;17.180;2023-01-05T06:42:26;99530.69;;;8.11;100.00
47913;BME280;33676;51.006;17.180;2023-01-05T06:44:54;99529.78;;;8.16;100.00
47913;BME280;33676;51.006;17.180;2023-01-05T06:47:22;99526.90;;;8.19;100.00
47913;BME280;33676;51.006;17.180;2023-01-05T06:49:51;99525.20;;;8.23;100.00
47913;BME280;33676;51.006;17.180;2023-01-05T06:52:19;99527.58;;;8.26;100.00
47913;BME280;33676;51.006;17.180;2023-01-05T06:55:13;99528.54;;;8.29;100.00
47913;BME280;33676;51.006;17.180;2023-01-05T06:57:41;99532.39;;;8.33;100.00
47913;BME280;33676;51.006;17.180;2023-01-05T07:00:15;99534.55;;;8.37;100.00
47913;BME280;33676;51.006;17.180;2023-01-05T07:02:47;99537.36;;;8.41;100.00
47913;BME280;33676;51.006;17.180;2023-01-05T07:05:16;99529.80;;;8.44;100.00
47913;BME280;33676;51.006;17.180;2023-01-05T07:07:44;99532.88;;;8.46;100.00
47913;BME280;33676;51.006;17.180;2023-01-05T07:10:13;99525.52;;;8.49;100.00
47913;BME280;33676;51.006;17.180;2023-01-05T07:12:41;99531.73;;;8.52;100.00
47913;BME280;33676;51.006;17.180;2023-01-05T07:15:10;99526.23;;;8.55;100.00
47913;BME280;33676;51.006;17.180;2023-01-05T07:17:38;99530.54;;;8.58;100.00
47913;BME280;33676;51.006;17.180;2023-01-05T07:20:07;99540.23;;;8.61;100.00
47913;BME280;33676;51.006;17.180;2023-01-05T07:22:36;99539.30;;;8.64;100.00
47913;BME280;33676;51.006;17.180;2023-01-05T07:25:04;99539.63;;;8.66;100.00
47913;BME280;33676;51.006;17.180;2023-01-05T07:27:33;99537.67;;;8.69;100.00
47913;BME280;33676;51.006;17.180;2023-01-05T07:30:02;99547.17;;;8.72;100.00
47913;BME280;33676;51.006;17.180;2023-01-05T07:32:31;99550.13;;;8.74;100.00
47913;BME280;33676;51.006;17.180;2023-01-05T07:34:59;99546.08;;;8.77;100.00
47913;BME280;33676;51.006;17.180;2023-01-05T07:37:27;99548.27;;;8.80;100.00
47913;BME280;33676;51.006;17.180;2023-01-05T07:39:55;99543.84;;;8.83;100.00
47913;BME280;33676;51.006;17.180;2023-01-05T07:42:24;99534.48;;;8.86;100.00
47913;BME280;33676;51.006;17.180;2023-01-05T07:44:53;99535.36;;;8.90;100.00
47913;BME280;33676;51.006;17.180;2023-01-05T07:47:21;99534.92;;;8.93;100.00
47913;BME280;33676;51.006;17.180;2023-01-05T07:49:49;99542.33;;;8.97;100.00
47913;BME280;33676;51.006;17.180;2023-01-05T07:52:18;99545.86;;;9.00;100.00
47913;BME280;33676;51.006;17.180;2023-01-05T07:54:46;99541.64;;;9.05;100.00
47913;BME280;33676;51.006;17.180;2023-01-05T07:57:15;99542.45;;;9.08;100.00
47913;BME280;33676;51.006;17.180;2023-01-05T07:59:43;99549.38;;;9.10;100.00
47913;BME280;33676;51.006;17.180;2023-01-05T08:02:11;99548.34;;;9.12;100.00
47913;BME280;33676;51.006;17.180;2023-01-05T08:04:40;99552.97;;;9.15;100.00
47913;BME280;33676;51.006;17.180;2023-01-05T08:07:08;99558.39;;;9.19;100.00
47913;BME280;33676;51.006;17.180;2023-01-05T08:09:38;99568.23;;;9.23;100.00
47913;BME280;33676;51.006;17.180;2023-01-05T08:12:27;99558.34;;;9.28;100.00
47913;BME280;33676;51.006;17.180;2023-01-05T08:14:56;99559.50;;;9.34;100.00
47913;BME280;33676;51.006;17.180;2023-01-05T08:17:24;99549.72;;;9.39;100.00
47913;BME280;33676;51.006;17.180;2023-01-05T08:19:53;99556.80;;;9.44;100.00
47913;BME280;33676;51.006;17.180;2023-01-05T08:22:21;99566.24;;;9.48;100.00
47913;BME280;33676;51.006;17.180;2023-01-05T08:24:49;99573.12;;;9.51;100.00
47913;BME280;33676;51.006;17.180;2023-01-05T08:27:19;99577.15;;;9.53;100.00
47913;BME280;33676;51.006;17.180;2023-01-05T08:29:47;99575.82;;;9.56;100.00
47913;BME280;33676;51.006;17.180;2023-01-05T08:32:16;99571.19;;;9.59;100.00
47913;BME280;33676;51.006;17.180;2023-01-05T08:34:44;99573.33;;;9.63;100.00
47913;BME280;33676;51.006;17.180;2023-01-05T08:37:20;99572.16;;;9.67;100.00
47913;BME280;33676;51.006;17.180;2023-01-05T08:39:49;99575.59;;;9.69;100.00
47913;BME280;33676;51.006;17.180;2023-01-05T08:42:17;99572.58;;;9.72;100.00
47913;BME280;33676;51.006;17.180;2023-01-05T08:44:45;99571.63;;;9.77;100.00
47913;BME280;33676;51.006;17.180;2023-01-05T08:47:14;99572.95;;;9.85;100.00
47913;BME280;33676;51.006;17.180;2023-01-05T08:49:45;99575.82;;;9.97;100.00
47913;BME280;33676;51.006;17.180;2023-01-05T08:52:14;99571.60;;;10.05;100.00
47913;BME280;33676;51.006;17.180;2023-01-05T08:54:42;99578.27;;;10.15;100.00
47913;BME280;33676;51.006;17.180;2023-01-05T08:57:11;99575.73;;;10.26;100.00
47913;BME280;33676;51.006;17.180;2023-01-05T08:59:39;99573.39;;;10.31;100.00
47913;BME280;33676;51.006;17.180;2023-01-05T09:02:11;99571.32;;;10.31;100.00
47913;BME280;33676;51.006;17.180;2023-01-05T09:04:40;99574.16;;;10.30;100.00
47913;BME280;33676;51.006;17.180;2023-01-05T09:07:08;99572.76;;;10.30;100.00
47913;BME280;33676;51.006;17.180;2023-01-05T09:09:37;99580.55;;;10.31;100.00
47913;BME280;33676;51.006;17.180;2023-01-05T09:12:06;99587.07;;;10.32;100.00
47913;BME280;33676;51.006;17.180;2023-01-05T09:14:35;99582.49;;;10.33;100.00
47913;BME280;33676;51.006;17.180;2023-01-05T09:17:03;99586.23;;;10.30;100.00
47913;BME280;33676;51.006;17.180;2023-01-05T09:19:35;99589.08;;;10.29;100.00
47913;BME280;33676;51.006;17.180;2023-01-05T09:22:04;99584.66;;;10.30;100.00
47913;BME280;33676;51.006;17.180;2023-01-05T09:24:32;99587.07;;;10.32;100.00
47913;BME280;33676;51.006;17.180;2023-01-05T09:27:00;99591.48;;;10.36;100.00
47913;BME280;33676;51.006;17.180;2023-01-05T09:29:31;99587.38;;;10.40;100.00
47913;BME280;33676;51.006;17.180;2023-01-05T09:31:59;99586.83;;;10.42;100.00
47913;BME280;33676;51.006;17.180;2023-01-05T09:34:28;99605.92;;;10.48;100.00
47913;BME280;33676;51.006;17.180;2023-01-05T09:36:56;99584.80;;;10.57;100.00
47913;BME280;33676;51.006;17.180;2023-01-05T09:39:25;99581.42;;;10.66;100.00
47913;BME280;33676;51.006;17.180;2023-01-05T09:41:56;99589.33;;;10.72;100.00
47913;BME280;33676;51.006;17.180;2023-01-05T09:44:41;99581.13;;;10.75;100.00
47913;BME280;33676;51.006;17.180;2023-01-05T09:47:16;99583.30;;;10.80;100.00
47913;BME280;33676;51.006;17.180;2023-01-05T09:49:48;99583.29;;;10.78;100.00
47913;BME280;33676;51.006;17.180;2023-01-05T09:52:20;99599.01;;;10.73;100.00
47913;BME280;33676;51.006;17.180;2023-01-05T09:54:49;99590.80;;;10.67;100.00
47913;BME280;33676;51.006;17.180;2023-01-05T09:57:26;99597.98;;;10.60;100.00
47913;BME280;33676;51.006;17.180;2023-01-05T10:00:03;99603.31;;;10.54;100.00
47913;BME280;33676;51.006;17.180;2023-01-05T10:02:57;99606.49;;;10.45;100.00
47913;BME280;33676;51.006;17.180;2023-01-05T10:05:27;99607.91;;;10.38;100.00
47913;BME280;33676;51.006;17.180;2023-01-05T10:08:02;99609.29;;;10.36;100.00
47913;BME280;33676;51.006;17.180;2023-01-05T10:10:47;99605.16;;;10.41;100.00
47913;BME280;33676;51.006;17.180;2023-01-05T10:13:44;99602.88;;;10.47;99.99
47913;BME280;33676;51.006;17.180;2023-01-05T10:16:19;99602.77;;;10.52;99.96
47913;BME280;33676;51.006;17.180;2023-01-05T10:18:54;99595.79;;;10.56;100.00
47913;BME280;33676;51.006;17.180;2023-01-05T10:27:36;99591.37;;;10.72;99.41
47913;BME280;33676;51.006;17.180;2023-01-05T10:30:14;99585.63;;;10.74;99.20
47913;BME280;33676;51.006;17.180;2023-01-05T10:33:12;99589.05;;;10.73;99.17
47913;BME280;33676;51.006;17.180;2023-01-05T10:36:26;99587.98;;;10.75;98.40
47913;BME280;33676;51.006;17.180;2023-01-05T10:39:51;99590.62;;;10.78;97.72
47913;BME280;33676;51.006;17.180;2023-01-05T10:45:28;99584.14;;;10.88;97.67
47913;BME280;33676;51.006;17.180;2023-01-05T10:47:58;99584.92;;;10.89;96.34
47913;BME280;33676;51.006;17.180;2023-01-05T10:50:36;99579.25;;;10.90;96.44
47913;BME280;33676;51.006;17.180;2023-01-05T10:53:27;99589.50;;;10.89;96.62
47913;BME280;33676;51.006;17.180;2023-01-05T10:58:44;99596.84;;;10.83;96.27
47913;BME280;33676;51.006;17.180;2023-01-05T11:01:27;99625.74;;;10.79;95.92
47913;BME280;33676;51.006;17.180;2023-01-05T11:04:21;99659.35;;;10.74;96.20
47913;BME280;33676;51.006;17.180;2023-01-05T11:07:04;99668.52;;;10.43;95.63
47913;BME280;33676;51.006;17.180;2023-01-05T11:09:39;99668.96;;;9.79;94.57
47913;BME280;33676;51.006;17.180;2023-01-05T11:12:18;99662.01;;;9.25;95.19
47913;BME280;33676;51.006;17.180;2023-01-05T11:14:51;99663.98;;;8.86;96.38
47913;BME280;33676;51.006;17.180;2023-01-05T11:17:27;99665.66;;;8.59;98.14
47913;BME280;33676;51.006;17.180;2023-01-05T11:19:56;99660.14;;;8.38;99.39
47913;BME280;33676;51.006;17.180;2023-01-05T11:22:35;99669.34;;;8.21;100.00
47913;BME280;33676;51.006;17.180;2023-01-05T11:28:14;99665.33;;;7.92;100.00
47913;BME280;33676;51.006;17.180;2023-01-05T11:31:06;99657.21;;;7.80;100.00
47913;BME280;33676;51.006;17.180;2023-01-05T11:33:35;99645.27;;;7.70;100.00
47913;BME280;33676;51.006;17.180;2023-01-05T11:36:06;99645.27;;;7.65;100.00
47913;BME280;33676;51.006;17.180;2023-01-05T11:38:35;99644.85;;;7.62;100.00
47913;BME280;33676;51.006;17.180;2023-01-05T11:41:09;99649.91;;;7.59;100.00
47913;BME280;33676;51.006;17.180;2023-01-05T11:43:38;99670.30;;;7.56;100.00
47913;BME280;33676;51.006;17.180;2023-01-05T11:46:07;99682.73;;;7.53;100.00
47913;BME280;33676;51.006;17.180;2023-01-05T11:48:37;99684.14;;;7.51;100.00
47913;BME280;33676;51.006;17.180;2023-01-05T11:51:05;99675.21;;;7.49;100.00
47913;BME280;33676;51.006;17.180;2023-01-05T11:53:37;99678.39;;;7.48;100.00
47913;BME280;33676;51.006;17.180;2023-01-05T11:56:21;99686.50;;;7.49;100.00
47913;BME280;33676;51.006;17.180;2023-01-05T11:58:52;99694.80;;;7.50;100.00
47913;BME280;33676;51.006;17.180;2023-01-05T12:02:09;99693.50;;;7.51;100.00
47913;BME280;33676;51.006;17.180;2023-01-05T12:05:12;99685.22;;;7.55;100.00
47913;BME280;33676;51.006;17.180;2023-01-05T12:07:54;99685.16;;;7.67;100.00
47913;BME280;33676;51.006;17.180;2023-01-05T12:13:43;99677.18;;;7.96;100.00
47913;BME280;33676;51.006;17.180;2023-01-05T12:16:46;99670.08;;;8.12;100.00
47913;BME280;33676;51.006;17.180;2023-01-05T12:19:55;99662.33;;;8.21;100.00
47913;BME280;33676;51.006;17.180;2023-01-05T12:22:59;99667.23;;;8.28;100.00
47913;BME280;33676;51.006;17.180;2023-01-05T12:26:03;99673.13;;;8.33;100.00
47913;BME280;33676;51.006;17.180;2023-01-05T12:35:45;99682.14;;;8.42;100.00
47913;BME280;33676;51.006;17.180;2023-01-05T12:38:23;99686.71;;;8.44;100.00
47913;BME280;33676;51.006;17.180;2023-01-05T12:41:26;99688.00;;;8.50;100.00
47913;BME280;33676;51.006;17.180;2023-01-05T12:50:30;99688.44;;;8.57;100.00
47913;BME280;33676;51.006;17.180;2023-01-05T12:56:41;99691.17;;;8.73;100.00
47913;BME280;33676;51.006;17.180;2023-01-05T12:59:22;99691.93;;;8.85;100.00
47913;BME280;33676;51.006;17.180;2023-01-05T13:02:02;99695.84;;;8.91;100.00
47913;BME280;33676;51.006;17.180;2023-01-05T13:08:00;99691.30;;;8.93;100.00
47913;BME280;33676;51.006;17.180;2023-01-05T13:13:07;99689.16;;;9.00;100.00
47913;BME280;33676;51.006;17.180;2023-01-05T13:18:43;99693.60;;;9.16;100.00
47913;BME280;33676;51.006;17.180;2023-01-05T13:21:15;99704.88;;;9.23;100.00
47913;BME280;33676;51.006;17.180;2023-01-05T13:23:52;99703.70;;;9.27;100.00
47913;BME280;33676;51.006;17.180;2023-01-05T13:26:22;99710.66;;;9.29;100.00
47913;BME280;33676;51.006;17.180;2023-01-05T13:28:54;99703.70;;;9.32;100.00
47913;BME280;33676;51.006;17.180;2023-01-05T13:31:57;99703.18;;;9.32;100.00
47913;BME280;33676;51.006;17.180;2023-01-05T13:37:40;99707.18;;;9.40;100.00
47913;BME280;33676;51.006;17.180;2023-01-05T13:44:02;99694.98;;;9.58;100.00
47913;BME280;33676;51.006;17.180;2023-01-05T13:52:58;99699.79;;;9.87;100.00
47913;BME280;33676;51.006;17.180;2023-01-05T13:55:32;99701.38;;;9.86;100.00
47913;BME280;33676;51.006;17.180;2023-01-05T13:58:03;99709.85;;;9.83;100.00
47913;BME280;33676;51.006;17.180;2023-01-05T14:00:38;99698.73;;;9.78;100.00
47913;BME280;33676;51.006;17.180;2023-01-05T14:05:50;99722.41;;;9.71;99.87
47913;BME280;33676;51.006;17.180;2023-01-05T14:08:24;99724.15;;;9.67;99.95
47913;BME280;33676;51.006;17.180;2023-01-05T14:11:15;99745.87;;;9.63;99.92
47913;BME280;33676;51.006;17.180;2023-01-05T14:22:32;99749.44;;;9.43;100.00
47913;BME280;33676;51.006;17.180;2023-01-05T14:28:20;99759.61;;;9.07;100.00
47913;BME280;33676;51.006;17.180;2023-01-05T14:30:50;99763.96;;;8.91;100.00
47913;BME280;33676;51.006;17.180;2023-01-05T14:33:20;99771.52;;;8.80;100.00
47913;BME280;33676;51.006;17.180;2023-01-05T14:35:48;99789.74;;;8.74;100.00
47913;BME280;33676;51.006;17.180;2023-01-05T14:38:22;99782.77;;;8.68;100.00
47913;BME280;33676;51.006;17.180;2023-01-05T14:40:53;99786.31;;;8.55;100.00
47913;BME280;33676;51.006;17.180;2023-01-05T14:43:31;99788.34;;;8.40;100.00
47913;BME280;33676;51.006;17.180;2023-01-05T14:48:57;99812.05;;;8.19;100.00
47913;BME280;33676;51.006;17.180;2023-01-05T14:51:34;99814.76;;;8.11;100.00
47913;BME280;33676;51.006;17.180;2023-01-05T14:54:04;99808.28;;;8.07;100.00